createdAt,value
2019-04-29T00:01:23.651Z,6.90
2019-04-29T00:03:54.390Z,7.10
2019-04-29T00:06:24.681Z,7.20
2019-04-29T00:08:55.289Z,6.90
2019-04-29T00:11:25.669Z,7.20
2019-04-29T00:13:56.067Z,7.20
2019-04-29T00:16:43.153Z,7.10
2019-04-29T00:19:41.383Z,7.30
2019-04-29T00:22:11.885Z,7.20
2019-04-29T00:24:42.093Z,6.80
2019-04-29T00:27:12.246Z,7.00
2019-04-29T00:29:42.460Z,7.00
2019-04-29T00:32:13.018Z,6.90
2019-04-29T00:34:43.252Z,7.10
2019-04-29T00:37:24.796Z,7.30
2019-04-29T00:40:19.838Z,7.10
2019-04-29T00:43:12.361Z,6.80
2019-04-29T00:45:42.919Z,7.10
2019-04-29T00:48:13.192Z,7.10
2019-04-29T00:50:43.334Z,7.00
2019-04-29T00:53:13.566Z,6.80
2019-04-29T00:55:44.083Z,6.80
2019-04-29T00:58:14.801Z,6.80
2019-04-29T01:00:45.108Z,7.10
2019-04-29T01:03:16.102Z,7.20
2019-04-29T01:05:46.324Z,7.20
2019-04-29T01:08:16.916Z,6.80
2019-04-29T01:10:47.908Z,7.10
2019-04-29T01:13:18.180Z,7.00
2019-04-29T01:15:48.462Z,6.80
2019-04-29T01:18:19.036Z,7.00
2019-04-29T01:20:49.512Z,6.90
2019-04-29T01:23:20.144Z,7.00
2019-04-29T01:25:54.945Z,7.00
2019-04-29T01:28:44.147Z,7.30
2019-04-29T01:31:27.543Z,7.40
2019-04-29T01:34:03.425Z,7.30
2019-04-29T01:36:37.411Z,7.50
2019-04-29T01:39:10.629Z,7.20
2019-04-29T01:41:46.685Z,6.90
2019-04-29T01:44:17.536Z,6.70
2019-04-29T01:46:47.775Z,6.30
2019-04-29T01:49:17.964Z,6.20
2019-04-29T01:51:48.204Z,6.20
2019-04-29T01:54:18.481Z,6.10
2019-04-29T01:56:48.765Z,6.30
2019-04-29T01:59:19.081Z,6.30
2019-04-29T02:01:49.748Z,6.30
2019-04-29T02:04:20.347Z,6.10
2019-04-29T02:06:50.552Z,6.20
2019-04-29T02:09:39.695Z,5.90
2019-04-29T02:12:09.906Z,6.20
2019-04-29T02:14:40.135Z,5.90
2019-04-29T02:17:10.691Z,6.50
2019-04-29T02:19:40.887Z,6.20
2019-04-29T02:22:18.505Z,6.20
2019-04-29T02:24:53.624Z,6.30
2019-04-29T02:27:23.829Z,6.40
2019-04-29T02:29:54.050Z,6.50
2019-04-29T02:32:24.229Z,6.40
2019-04-29T02:34:54.499Z,6.60
2019-04-29T02:37:30.430Z,6.30
2019-04-29T02:40:16.206Z,6.50
2019-04-29T02:42:55.654Z,6.60
2019-04-29T02:45:29.768Z,6.40
2019-04-29T02:48:00.197Z,6.50
2019-04-29T02:50:31.124Z,6.20
2019-04-29T02:53:01.670Z,6.20
2019-04-29T02:55:42.208Z,6.10
2019-04-29T02:58:30.016Z,6.40
2019-04-29T03:01:19.604Z,6.30
2019-04-29T03:03:58.804Z,6.30
2019-04-29T03:06:29.458Z,6.20
2019-04-29T03:09:00.333Z,6.10
2019-04-29T03:11:30.524Z,6.40
2019-04-29T03:14:00.734Z,6.30
2019-04-29T03:16:31.037Z,6.30
2019-04-29T03:19:06.337Z,6.40
2019-04-29T03:21:42.081Z,6.80
2019-04-29T03:24:14.578Z,6.80
2019-04-29T03:26:45.869Z,6.70
2019-04-29T03:29:23.334Z,6.20
2019-04-29T03:31:55.020Z,6.30
2019-04-29T03:34:25.693Z,6.10
2019-04-29T03:36:56.234Z,5.90
2019-04-29T03:39:26.512Z,6.00
2019-04-29T03:41:56.737Z,5.90
2019-04-29T03:44:27.019Z,5.90
2019-04-29T03:46:57.259Z,6.30
2019-04-29T03:49:27.869Z,6.40
2019-04-29T03:51:58.162Z,6.50
2019-04-29T03:54:28.495Z,6.40
2019-04-29T03:56:58.707Z,6.30
2019-04-29T03:59:28.978Z,6.20
2019-04-29T04:02:08.489Z,6.30
2019-04-29T04:05:13.096Z,6.40
2019-04-29T04:07:54.119Z,6.00
2019-04-29T04:10:24.536Z,6.30
2019-04-29T04:12:54.755Z,6.20
2019-04-29T04:15:24.981Z,6.20
2019-04-29T04:18:07.035Z,6.30
2019-04-29T04:20:38.283Z,6.20
2019-04-29T04:23:08.625Z,6.40
2019-04-29T04:25:38.983Z,6.20
2019-04-29T04:28:09.493Z,6.40
2019-04-29T04:30:39.841Z,6.00
2019-04-29T04:33:10.474Z,6.30
2019-04-29T04:35:41.079Z,6.20
2019-04-29T04:38:23.804Z,6.00
2019-04-29T04:41:03.949Z,5.80
2019-04-29T04:43:34.184Z,6.10
2019-04-29T04:46:04.360Z,6.10
2019-04-29T04:48:34.767Z,6.10
2019-04-29T04:51:05.325Z,6.20
2019-04-29T04:53:35.548Z,5.80
2019-04-29T04:56:06.090Z,5.90
2019-04-29T04:58:36.346Z,6.30
2019-04-29T05:01:07.745Z,6.20
2019-04-29T05:03:37.998Z,6.40
2019-04-29T05:06:08.643Z,6.40
2019-04-29T05:08:38.909Z,6.00
2019-04-29T05:11:09.270Z,5.90
2019-04-29T05:13:39.483Z,6.10
2019-04-29T05:16:09.744Z,5.90
2019-04-29T05:18:40.066Z,6.00
2019-04-29T05:21:10.330Z,5.90
2019-04-29T05:23:41.723Z,6.20
2019-04-29T05:26:12.382Z,6.30
2019-04-29T05:28:43.069Z,6.40
2019-04-29T05:31:13.338Z,6.40
2019-04-29T05:33:43.765Z,6.60
2019-04-29T05:36:34.093Z,6.50
2019-04-29T05:39:37.321Z,6.60
2019-04-29T05:42:15.824Z,6.90
2019-04-29T05:44:48.969Z,6.70
2019-04-29T05:47:28.722Z,6.90
2019-04-29T05:50:33.680Z,6.90
2019-04-29T05:53:21.147Z,6.80
2019-04-29T05:55:52.649Z,7.10
2019-04-29T05:58:23.427Z,7.20
2019-04-29T06:01:00.407Z,7.20
2019-04-29T06:03:33.614Z,7.10
2019-04-29T06:06:02.735Z,7.00
2019-04-29T06:08:34.504Z,7.10
2019-04-29T06:11:04.896Z,7.50
2019-04-29T06:13:35.188Z,7.30
2019-04-29T06:16:05.442Z,7.50
2019-04-29T06:18:35.679Z,7.60
2019-04-29T06:21:09.374Z,7.70
2019-04-29T06:23:38.737Z,7.80
2019-04-29T06:26:09.004Z,7.70
2019-04-29T06:28:39.347Z,7.70
2019-04-29T06:31:09.807Z,8.20
2019-04-29T06:33:40.689Z,8.00
2019-04-29T06:36:11.049Z,8.00
2019-04-29T06:38:42.239Z,8.40
2019-04-29T06:41:13.360Z,8.20
2019-04-29T06:43:43.664Z,8.50
2019-04-29T06:46:14.309Z,8.50
2019-04-29T06:48:44.573Z,8.70
2019-04-29T06:51:15.247Z,8.80
2019-04-29T06:53:47.809Z,8.90
2019-04-29T06:56:17.653Z,9.30
2019-04-29T06:58:49.128Z,9.50
2019-04-29T07:01:19.999Z,9.60
2019-04-29T07:03:50.337Z,9.50
2019-04-29T07:06:20.578Z,9.80
2019-04-29T07:08:50.834Z,10.00
2019-04-29T07:11:21.269Z,10.20
2019-04-29T07:13:53.526Z,10.10
2019-04-29T07:16:27.196Z,10.40
2019-04-29T07:18:55.996Z,10.60
2019-04-29T07:21:26.647Z,10.60
2019-04-29T07:23:57.267Z,10.60
2019-04-29T07:26:27.516Z,10.90
2019-04-29T07:28:57.754Z,10.80
2019-04-29T07:31:33.206Z,10.90
2019-04-29T07:34:00.910Z,11.20
2019-04-29T07:36:31.502Z,11.10
2019-04-29T07:39:01.799Z,11.30
2019-04-29T07:41:32.348Z,11.20
2019-04-29T07:44:02.567Z,11.40
2019-04-29T07:46:56.406Z,11.00
2019-04-29T07:49:18.927Z,11.00
2019-04-29T07:51:49.549Z,11.20
2019-04-29T07:54:20.138Z,11.10
2019-04-29T07:56:50.432Z,11.20
2019-04-29T07:59:21.007Z,11.30
2019-04-29T08:01:51.533Z,11.60
2019-04-29T08:04:22.117Z,11.60
2019-04-29T08:06:52.520Z,11.50
2019-04-29T08:09:23.029Z,11.50
2019-04-29T08:11:53.273Z,11.80
2019-04-29T08:14:25.341Z,12.10
2019-04-29T08:16:55.582Z,12.00
2019-04-29T08:19:29.342Z,12.10
2019-04-29T08:21:57.837Z,12.40
2019-04-29T08:24:28.136Z,12.30
2019-04-29T08:26:58.391Z,12.90
2019-04-29T08:29:30.883Z,13.00
2019-04-29T08:32:02.546Z,13.40
2019-04-29T08:34:32.926Z,13.10
2019-04-29T08:37:03.493Z,12.90
2019-04-29T08:39:33.745Z,12.60
2019-04-29T08:42:09.018Z,12.40
2019-04-29T08:44:54.621Z,12.40
2019-04-29T08:47:30.418Z,12.40
2019-04-29T08:49:57.740Z,12.30
2019-04-29T08:52:28.401Z,12.10
2019-04-29T08:54:58.833Z,12.30
2019-04-29T08:57:31.711Z,12.10
2019-04-29T09:00:01.015Z,12.10
2019-04-29T09:02:35.150Z,12.00
2019-04-29T09:05:06.767Z,12.20
2019-04-29T09:07:35.493Z,12.10
2019-04-29T09:10:06.186Z,12.10
2019-04-29T09:12:36.505Z,12.20
2019-04-29T09:15:07.277Z,12.30
2019-04-29T09:17:38.186Z,12.40
2019-04-29T09:20:08.807Z,12.40
2019-04-29T09:22:42.715Z,12.40
2019-04-29T09:25:21.533Z,12.80
2019-04-29T09:27:56.460Z,13.00
2019-04-29T09:30:27.448Z,13.10
2019-04-29T09:32:57.812Z,13.20
2019-04-29T09:35:33.685Z,13.10
2019-04-29T09:38:05.011Z,13.10
2019-04-29T09:40:39.190Z,12.70
2019-04-29T09:43:34.251Z,12.80
2019-04-29T09:46:10.984Z,12.70
2019-04-29T09:48:41.598Z,12.90
2019-04-29T09:51:17.631Z,13.10
2019-04-29T09:53:44.062Z,13.40
2019-04-29T09:56:14.320Z,13.10
2019-04-29T09:58:44.937Z,13.50
2019-04-29T10:01:26.029Z,13.70
2019-04-29T10:04:11.146Z,14.00
2019-04-29T10:06:42.039Z,14.00
2019-04-29T10:09:12.471Z,14.10
2019-04-29T10:11:42.748Z,14.30
2019-04-29T10:14:13.332Z,14.50
2019-04-29T10:17:06.182Z,14.40
2019-04-29T10:19:42.147Z,14.60
2019-04-29T10:22:12.385Z,14.70
2019-04-29T10:24:42.920Z,14.80
2019-04-29T10:27:13.320Z,14.60
2019-04-29T10:29:45.163Z,14.50
2019-04-29T10:32:15.558Z,14.50
2019-04-29T10:34:46.309Z,14.70
2019-04-29T10:37:17.025Z,14.60
2019-04-29T10:40:11.414Z,14.50
2019-04-29T10:42:47.301Z,14.80
2019-04-29T10:45:42.658Z,15.10
2019-04-29T10:48:37.766Z,15.30
2019-04-29T10:51:17.475Z,15.40
2019-04-29T10:53:51.040Z,15.30
2019-04-29T10:56:20.351Z,15.20
2019-04-29T10:58:51.225Z,15.10
2019-04-29T11:02:30.284Z,14.70
2019-04-29T11:05:15.144Z,14.70
2019-04-29T11:07:46.459Z,14.60
2019-04-29T11:10:25.754Z,14.40
2019-04-29T11:12:56.683Z,14.50
2019-04-29T11:15:32.676Z,14.30
2019-04-29T11:18:04.310Z,14.30
2019-04-29T11:20:35.813Z,14.20
2019-04-29T11:23:34.211Z,14.20
2019-04-29T11:26:35.789Z,14.30
2019-04-29T11:29:09.380Z,14.30
2019-04-29T11:31:38.764Z,14.30
2019-04-29T11:34:18.038Z,14.40
2019-04-29T11:36:48.868Z,14.30
2019-04-29T11:39:19.124Z,14.40
2019-04-29T11:41:50.142Z,14.20
2019-04-29T11:44:21.953Z,14.40
2019-04-29T11:46:53.420Z,14.10
2019-04-29T11:49:31.306Z,14.10
2019-04-29T11:52:09.627Z,14.10
2019-04-29T11:54:34.413Z,14.30
2019-04-29T11:57:06.564Z,14.50
2019-04-29T11:59:49.926Z,14.60
2019-04-29T12:02:44.530Z,14.50
2019-04-29T12:05:13.894Z,14.60
2019-04-29T12:07:44.745Z,14.80
2019-04-29T12:10:15.008Z,15.00
2019-04-29T12:12:47.693Z,14.90
2019-04-29T12:15:33.806Z,14.80
2019-04-29T12:18:28.951Z,14.90
2019-04-29T12:21:18.516Z,14.70
2019-04-29T12:23:52.142Z,14.50
2019-04-29T12:26:21.709Z,14.50
2019-04-29T12:28:52.098Z,14.40
2019-04-29T12:31:34.295Z,14.60
2019-04-29T12:34:26.645Z,14.80
2019-04-29T12:36:56.857Z,15.10
2019-04-29T12:40:01.619Z,15.10
2019-04-29T12:43:02.844Z,15.20
2019-04-29T12:45:54.839Z,15.50
2019-04-29T12:48:25.883Z,15.30
2019-04-29T12:50:57.597Z,15.60
2019-04-29T12:53:28.215Z,15.60
2019-04-29T12:55:58.373Z,15.60
2019-04-29T12:58:28.611Z,15.60
2019-04-29T13:01:06.055Z,15.80
2019-04-29T13:03:46.887Z,15.80
2019-04-29T13:06:39.078Z,15.70
2019-04-29T13:09:17.599Z,16.00
2019-04-29T13:11:48.184Z,16.10
2019-04-29T13:14:11.087Z,16.30
2019-04-29T13:16:58.207Z,16.30
2019-04-29T13:19:36.545Z,16.00
2019-04-29T13:22:10.632Z,15.90
2019-04-29T13:24:42.624Z,15.90
2019-04-29T13:27:16.283Z,16.10
2019-04-29T13:29:43.645Z,16.30
2019-04-29T13:32:13.917Z,16.00
2019-04-29T13:34:45.835Z,15.90
2019-04-29T13:37:18.975Z,15.80
2019-04-29T13:39:49.167Z,15.90
2019-04-29T13:42:19.497Z,15.90
2019-04-29T13:45:05.091Z,16.10
2019-04-29T13:47:31.056Z,16.30
2019-04-29T13:50:18.770Z,16.30
2019-04-29T13:52:46.190Z,16.20
2019-04-29T13:55:24.090Z,16.00
2019-04-29T13:57:49.534Z,15.90
2019-04-29T14:00:55.727Z,16.00
2019-04-29T14:03:29.824Z,15.70
2019-04-29T14:06:04.201Z,15.60
2019-04-29T14:08:32.409Z,15.70
2019-04-29T14:11:02.877Z,15.50
2019-04-29T14:13:33.246Z,15.10
2019-04-29T14:16:03.562Z,15.00
2019-04-29T14:18:35.108Z,14.90
2019-04-29T14:21:05.295Z,15.00
2019-04-29T14:23:36.208Z,15.00
2019-04-29T14:26:06.408Z,15.00
2019-04-29T14:28:36.634Z,15.20
2019-04-29T14:31:06.904Z,15.30
2019-04-29T14:33:42.320Z,15.20
2019-04-29T14:36:12.896Z,15.20
2019-04-29T14:38:43.648Z,15.30
2019-04-29T14:41:19.217Z,15.40
2019-04-29T14:44:11.591Z,15.50
2019-04-29T14:46:55.913Z,15.80
2019-04-29T14:49:28.603Z,15.80
2019-04-29T14:51:59.227Z,15.80
2019-04-29T14:54:29.447Z,15.90
2019-04-29T14:56:59.655Z,15.80
2019-04-29T14:59:30.336Z,15.70
2019-04-29T15:02:17.094Z,15.70
2019-04-29T15:04:46.892Z,15.90
2019-04-29T15:07:18.660Z,15.90
2019-04-29T15:09:56.339Z,15.80
2019-04-29T15:13:19.690Z,15.70
2019-04-29T15:15:44.360Z,15.60
2019-04-29T15:18:45.971Z,15.70
2019-04-29T15:21:32.219Z,15.40
2019-04-29T15:23:53.511Z,15.50
2019-04-29T15:26:24.583Z,15.70
2019-04-29T15:28:54.843Z,15.70
2019-04-29T15:31:26.034Z,15.60
2019-04-29T15:33:56.327Z,15.50
2019-04-29T15:36:30.604Z,15.30
2019-04-29T15:39:09.664Z,15.50
2019-04-29T15:41:33.274Z,15.50
2019-04-29T15:44:07.802Z,15.40
2019-04-29T15:46:46.139Z,15.30
2019-04-29T15:49:08.492Z,15.20
2019-04-29T15:51:38.986Z,15.30
2019-04-29T15:54:14.488Z,15.30
2019-04-29T15:56:41.950Z,15.40
2019-04-29T15:59:12.276Z,15.30
2019-04-29T16:01:42.890Z,15.20
2019-04-29T16:04:20.938Z,15.30
2019-04-29T16:07:17.046Z,15.10
2019-04-29T16:10:14.504Z,15.00
2019-04-29T16:12:51.075Z,14.90
2019-04-29T16:15:18.058Z,14.80
2019-04-29T16:17:49.200Z,14.70
2019-04-29T16:20:19.592Z,14.70
2019-04-29T16:22:54.211Z,14.60
2019-04-29T16:25:22.871Z,14.50
2019-04-29T16:27:53.572Z,14.50
2019-04-29T16:30:26.154Z,14.50
2019-04-29T16:32:56.028Z,14.70
2019-04-29T16:35:34.262Z,14.70
2019-04-29T16:37:58.307Z,14.70
2019-04-29T16:40:33.838Z,14.80
2019-04-29T16:43:11.708Z,14.90
2019-04-29T16:45:51.527Z,14.70
2019-04-29T16:48:19.605Z,14.50
2019-04-29T16:50:50.303Z,14.30
2019-04-29T16:53:20.527Z,14.20
2019-04-29T16:55:50.744Z,14.20
2019-04-29T16:58:21.079Z,14.10
2019-04-29T17:00:52.794Z,14.20
2019-04-29T17:03:23.146Z,14.30
2019-04-29T17:05:53.777Z,14.30
2019-04-29T17:08:29.157Z,14.20
2019-04-29T17:11:11.899Z,14.00
2019-04-29T17:13:43.151Z,13.90
2019-04-29T17:16:15.399Z,13.90
2019-04-29T17:18:45.683Z,13.80
2019-04-29T17:21:16.100Z,13.70
2019-04-29T17:23:46.411Z,13.70
2019-04-29T17:26:16.990Z,13.60
2019-04-29T17:29:11.594Z,13.50
2019-04-29T17:31:57.130Z,13.40
2019-04-29T17:34:56.780Z,13.10
2019-04-29T17:37:01.725Z,13.40
2019-04-29T17:39:32.105Z,13.30
2019-04-29T17:42:02.593Z,13.30
2019-04-29T17:44:57.877Z,13.30
2019-04-29T17:47:50.004Z,13.00
2019-04-29T17:50:30.547Z,13.00
2019-04-29T17:52:56.396Z,12.90
2019-04-29T17:55:38.794Z,12.80
2019-04-29T17:58:19.915Z,12.80
2019-04-29T18:01:02.036Z,12.70
2019-04-29T18:03:57.313Z,12.70
2019-04-29T18:06:59.009Z,12.80
2019-04-29T18:09:37.304Z,13.10
2019-04-29T18:12:16.088Z,12.70
2019-04-29T18:14:46.366Z,12.40
2019-04-29T18:17:26.932Z,12.40
2019-04-29T18:19:57.220Z,12.20
2019-04-29T18:22:37.690Z,12.50
2019-04-29T18:25:30.807Z,12.50
2019-04-29T18:28:00.058Z,12.30
2019-04-29T18:30:35.741Z,12.30
2019-04-29T18:32:59.746Z,12.00
2019-04-29T18:35:30.387Z,11.70
2019-04-29T18:38:00.743Z,12.00
2019-04-29T18:40:35.492Z,11.70
2019-04-29T18:43:04.900Z,11.80
2019-04-29T18:45:36.791Z,11.70
2019-04-29T18:48:09.008Z,11.90
2019-04-29T18:50:40.092Z,11.70
2019-04-29T18:53:10.299Z,11.70
2019-04-29T18:55:40.489Z,11.40
2019-04-29T18:58:10.705Z,11.40
2019-04-29T19:00:41.629Z,11.30
2019-04-29T19:03:14.885Z,11.40
2019-04-29T19:05:48.958Z,11.20
2019-04-29T19:08:23.101Z,11.10
2019-04-29T19:10:52.316Z,11.20
2019-04-29T19:13:22.669Z,11.00
2019-04-29T19:15:54.861Z,10.90
2019-04-29T19:18:25.467Z,11.10
2019-04-29T19:20:56.978Z,10.80
2019-04-29T19:23:29.598Z,11.00
2019-04-29T19:25:59.404Z,10.80
2019-04-29T19:28:32.256Z,10.70
2019-04-29T19:31:03.298Z,10.60
2019-04-29T19:33:37.643Z,10.80
2019-04-29T19:36:08.814Z,10.50
2019-04-29T19:38:37.827Z,10.50
2019-04-29T19:41:11.506Z,10.50
2019-04-29T19:43:40.000Z,10.50
2019-04-29T19:46:21.746Z,10.40
2019-04-29T19:48:42.617Z,10.30
2019-04-29T19:51:17.552Z,10.20
2019-04-29T19:53:49.165Z,10.20
2019-04-29T19:56:21.067Z,10.10
2019-04-29T19:58:49.124Z,10.10
2019-04-29T20:01:29.771Z,10.10
2019-04-29T20:04:06.791Z,10.10
2019-04-29T20:06:38.843Z,10.10
2019-04-29T20:09:17.485Z,10.20
2019-04-29T20:11:41.654Z,10.10
2019-04-29T20:14:18.699Z,10.10
2019-04-29T20:17:13.901Z,10.00
2019-04-29T20:19:55.266Z,10.10
2019-04-29T20:22:21.538Z,10.00
2019-04-29T20:24:52.019Z,9.90
2019-04-29T20:27:26.221Z,10.00
2019-04-29T20:29:55.826Z,10.30
2019-04-29T20:32:30.235Z,10.00
2019-04-29T20:35:07.002Z,10.20
2019-04-29T20:37:30.591Z,9.80
2019-04-29T20:40:01.362Z,10.20
2019-04-29T20:42:31.931Z,10.00
2019-04-29T20:45:02.387Z,9.90
2019-04-29T20:47:37.852Z,10.00
2019-04-29T20:50:09.020Z,9.90
2019-04-29T20:53:02.251Z,9.90
2019-04-29T20:57:52.501Z,9.80
2019-04-29T21:00:25.422Z,10.10
2019-04-29T21:02:56.495Z,10.00
2019-04-29T21:05:27.933Z,10.00
2019-04-29T21:08:03.316Z,10.00
2019-04-29T21:10:31.505Z,9.90
2019-04-29T21:13:29.605Z,9.80
2019-04-29T21:16:22.763Z,9.90
2019-04-29T21:18:56.879Z,10.00
2019-04-29T21:21:27.136Z,10.10
2019-04-29T21:23:58.587Z,10.00
2019-04-29T21:26:28.958Z,9.90
2019-04-29T21:28:59.659Z,9.90
2019-04-29T21:31:30.340Z,9.80
2019-04-29T21:34:00.634Z,10.00
2019-04-29T21:36:45.363Z,9.80
2019-04-29T21:39:36.482Z,9.70
2019-04-29T21:42:29.728Z,10.00
2019-04-29T21:45:03.181Z,9.60
2019-04-29T21:47:41.650Z,9.80
2019-04-29T21:50:02.480Z,9.70
2019-04-29T21:52:33.118Z,9.40
2019-04-29T21:55:05.210Z,9.70
2019-04-29T21:57:35.613Z,9.90
2019-04-29T22:00:08.132Z,9.80
2019-04-29T22:02:41.478Z,9.90
2019-04-29T22:05:16.914Z,9.60
2019-04-29T22:07:44.689Z,9.70
2019-04-29T22:10:19.939Z,9.70
2019-04-29T22:12:50.884Z,9.50
2019-04-29T22:15:30.685Z,9.60
2019-04-29T22:17:56.389Z,9.50
2019-04-29T22:20:25.847Z,9.30
2019-04-29T22:22:56.314Z,9.40
2019-04-29T22:25:26.541Z,9.30
2019-04-29T22:27:57.168Z,9.50
2019-04-29T22:30:27.420Z,9.60
2019-04-29T22:32:58.678Z,9.20
2019-04-29T22:35:32.754Z,9.10
2019-04-29T22:38:02.226Z,9.20
2019-04-29T22:40:34.169Z,9.20
2019-04-29T22:43:16.245Z,9.00
2019-04-29T22:45:46.028Z,9.30
2019-04-29T22:48:19.487Z,9.00
2019-04-29T22:50:48.342Z,9.40
2019-04-29T22:53:19.259Z,9.10
2019-04-29T22:55:49.531Z,9.00
2019-04-29T22:58:19.825Z,9.10
2019-04-29T23:00:50.545Z,9.40
2019-04-29T23:03:21.102Z,9.20
2019-04-29T23:05:51.785Z,9.30
2019-04-29T23:08:22.070Z,9.20
2019-04-29T23:10:53.169Z,9.20
2019-04-29T23:16:02.325Z,9.10
2019-04-29T23:18:41.096Z,9.50
2019-04-29T23:21:43.286Z,9.50
2019-04-29T23:24:18.169Z,9.50
2019-04-29T23:26:48.875Z,9.50
2019-04-29T23:29:19.408Z,9.40
2019-04-29T23:31:50.037Z,9.40
2019-04-29T23:34:20.385Z,9.50
2019-04-29T23:36:51.112Z,9.60
2019-04-29T23:39:21.704Z,9.40
2019-04-29T23:41:52.076Z,9.70
2019-04-29T23:44:22.661Z,9.50
2019-04-29T23:46:53.350Z,9.50
2019-04-29T23:49:25.030Z,9.60
2019-04-29T23:51:55.401Z,9.60
2019-04-29T23:54:25.909Z,9.70
2019-04-29T23:57:23.719Z,9.60
